sensor_id;sensor_type;location;lat;lon;timestamp;temperature;humidity
43043;DHT22;28667;50.758;6.096;2022-07-11T00:02:14;17.80;99.90
43043;DHT22;28667;50.758;6.096;2022-07-11T00:04:41;17.80;99.90
43043;DHT22;28667;50.758;6.096;2022-07-11T00:07:09;17.70;99.90
43043;DHT22;28667;50.758;6.096;2022-07-11T00:09:35;17.70;99.90
43043;DHT22;28667;50.758;6.096;2022-07-11T00:12:02;17.70;99.90
43043;DHT22;28667;50.758;6.096;2022-07-11T00:14:28;17.70;99.90
43043;DHT22;28667;50.758;6.096;2022-07-11T00:16:54;17.60;99.90
43043;DHT22;28667;50.758;6.096;2022-07-11T00:19:21;17.60;99.90
43043;DHT22;28667;50.758;6.096;2022-07-11T00:21:49;17.60;99.90
43043;DHT22;28667;50.758;6.096;2022-07-11T00:24:15;17.60;99.90
43043;DHT22;28667;50.758;6.096;2022-07-11T00:26:43;17.60;99.90
43043;DHT22;28667;50.758;6.096;2022-07-11T00:29:09;17.60;99.90
43043;DHT22;28667;50.758;6.096;2022-07-11T00:31:35;17.60;99.90
43043;DHT22;28667;50.758;6.096;2022-07-11T00:34:01;17.60;99.90
43043;DHT22;28667;50.758;6.096;2022-07-11T00:36:28;17.60;99.90
43043;DHT22;28667;50.758;6.096;2022-07-11T00:38:54;17.70;99.90
43043;DHT22;28667;50.758;6.096;2022-07-11T00:41:20;17.70;99.90
43043;DHT22;28667;50.758;6.096;2022-07-11T00:43:55;17.70;99.90
43043;DHT22;28667;50.758;6.096;2022-07-11T00:46:22;17.60;99.90
43043;DHT22;28667;50.758;6.096;2022-07-11T00:48:49;17.60;99.90
43043;DHT22;28667;50.758;6.096;2022-07-11T00:51:16;17.60;99.90
43043;DHT22;28667;50.758;6.096;2022-07-11T00:53:43;17.60;99.90
43043;DHT22;28667;50.758;6.096;2022-07-11T00:56:10;17.60;99.90
43043;DHT22;28667;50.758;6.096;2022-07-11T00:58:36;17.60;99.90
43043;DHT22;28667;50.758;6.096;2022-07-11T01:01:03;17.60;99.90
43043;DHT22;28667;50.758;6.096;2022-07-11T01:03:29;17.60;99.90
43043;DHT22;28667;50.758;6.096;2022-07-11T01:05:55;17.60;99.90
43043;DHT22;28667;50.758;6.096;2022-07-11T01:08:22;17.60;99.90
43043;DHT22;28667;50.758;6.096;2022-07-11T01:10:48;17.60;99.90
43043;DHT22;28667;50.758;6.096;2022-07-11T01:13:14;17.60;99.90
43043;DHT22;28667;50.758;6.096;2022-07-11T01:15:40;17.50;99.90
43043;DHT22;28667;50.758;6.096;2022-07-11T01:18:06;17.50;99.90
43043;DHT22;28667;50.758;6.096;2022-07-11T01:20:32;17.50;99.90
43043;DHT22;28667;50.758;6.096;2022-07-11T01:23:07;17.50;99.90
43043;DHT22;28667;50.758;6.096;2022-07-11T01:25:33;17.50;99.90
43043;DHT22;28667;50.758;6.096;2022-07-11T01:28:02;17.50;99.90
43043;DHT22;28667;50.758;6.096;2022-07-11T01:30:30;17.50;99.90
43043;DHT22;28667;50.758;6.096;2022-07-11T01:32:57;17.50;99.90
43043;DHT22;28667;50.758;6.096;2022-07-11T01:35:23;17.50;99.90
43043;DHT22;28667;50.758;6.096;2022-07-11T01:37:50;17.60;99.90
43043;DHT22;28667;50.758;6.096;2022-07-11T01:40:16;17.50;99.90
43043;DHT22;28667;50.758;6.096;2022-07-11T01:42:43;17.50;99.90
43043;DHT22;28667;50.758;6.096;2022-07-11T01:45:10;17.50;99.90
43043;DHT22;28667;50.758;6.096;2022-07-11T01:47:37;17.50;99.90
43043;DHT22;28667;50.758;6.096;2022-07-11T01:50:04;17.40;99.90
43043;DHT22;28667;50.758;6.096;2022-07-11T01:52:30;17.40;99.90
43043;DHT22;28667;50.758;6.096;2022-07-11T01:54:56;17.40;99.90
43043;DHT22;28667;50.758;6.096;2022-07-11T01:57:22;17.40;99.90
43043;DHT22;28667;50.758;6.096;2022-07-11T01:59:48;17.40;99.90
43043;DHT22;28667;50.758;6.096;2022-07-11T02:02:15;17.40;99.90
43043;DHT22;28667;50.758;6.096;2022-07-11T02:04:41;17.30;99.90
43043;DHT22;28667;50.758;6.096;2022-07-11T02:07:07;17.30;99.90
43043;DHT22;28667;50.758;6.096;2022-07-11T02:09:34;17.30;99.90
43043;DHT22;28667;50.758;6.096;2022-07-11T02:12:00;17.30;99.90
43043;DHT22;28667;50.758;6.096;2022-07-11T02:14:26;17.30;99.90
43043;DHT22;28667;50.758;6.096;2022-07-11T02:16:52;17.20;99.90
43043;DHT22;28667;50.758;6.096;2022-07-11T02:19:18;17.20;99.90
43043;DHT22;28667;50.758;6.096;2022-07-11T02:21:44;17.20;99.90
43043;DHT22;28667;50.758;6.096;2022-07-11T02:24:10;17.20;99.90
43043;DHT22;28667;50.758;6.096;2022-07-11T02:26:36;17.20;99.90
43043;DHT22;28667;50.758;6.096;2022-07-11T02:29:02;17.10;99.90
43043;DHT22;28667;50.758;6.096;2022-07-11T02:31:28;17.10;99.90
43043;DHT22;28667;50.758;6.096;2022-07-11T02:33:54;17.10;99.90
43043;DHT22;28667;50.758;6.096;2022-07-11T02:36:20;17.10;99.90
43043;DHT22;28667;50.758;6.096;2022-07-11T02:38:46;17.10;99.90
43043;DHT22;28667;50.758;6.096;2022-07-11T02:41:12;17.00;99.90
43043;DHT22;28667;50.758;6.096;2022-07-11T02:43:38;17.00;99.90
43043;DHT22;28667;50.758;6.096;2022-07-11T02:46:04;17.00;99.90
43043;DHT22;28667;50.758;6.096;2022-07-11T02:48:31;16.90;99.90
43043;DHT22;28667;50.758;6.096;2022-07-11T02:50:57;16.90;99.90
43043;DHT22;28667;50.758;6.096;2022-07-11T02:53:24;16.90;99.90
43043;DHT22;28667;50.758;6.096;2022-07-11T02:55:50;16.80;99.90
43043;DHT22;28667;50.758;6.096;2022-07-11T02:58:16;16.80;99.90
43043;DHT22;28667;50.758;6.096;2022-07-11T03:00:42;16.80;99.90
43043;DHT22;28667;50.758;6.096;2022-07-11T03:03:08;16.70;99.90
43043;DHT22;28667;50.758;6.096;2022-07-11T03:05:34;16.70;99.90
43043;DHT22;28667;50.758;6.096;2022-07-11T03:08:00;16.70;99.90
43043;DHT22;28667;50.758;6.096;2022-07-11T03:10:26;16.70;99.90
43043;DHT22;28667;50.758;6.096;2022-07-11T03:12:52;16.60;99.90
43043;DHT22;28667;50.758;6.096;2022-07-11T03:15:19;16.70;99.90
43043;DHT22;28667;50.758;6.096;2022-07-11T03:17:46;16.60;99.90
43043;DHT22;28667;50.758;6.096;2022-07-11T03:20:13;16.70;99.90
43043;DHT22;28667;50.758;6.096;2022-07-11T03:22:39;16.70;99.90
43043;DHT22;28667;50.758;6.096;2022-07-11T03:25:06;16.70;99.90
43043;DHT22;28667;50.758;6.096;2022-07-11T03:27:33;16.70;99.90
43043;DHT22;28667;50.758;6.096;2022-07-11T03:29:59;16.70;99.90
43043;DHT22;28667;50.758;6.096;2022-07-11T03:32:25;16.70;99.90
43043;DHT22;28667;50.758;6.096;2022-07-11T03:34:51;16.70;99.90
43043;DHT22;28667;50.758;6.096;2022-07-11T03:37:35;16.70;99.90
43043;DHT22;28667;50.758;6.096;2022-07-11T03:40:02;16.70;99.90
43043;DHT22;28667;50.758;6.096;2022-07-11T03:42:28;16.70;99.90
43043;DHT22;28667;50.758;6.096;2022-07-11T03:44:54;16.70;99.90
43043;DHT22;28667;50.758;6.096;2022-07-11T03:47:20;16.70;99.90
43043;DHT22;28667;50.758;6.096;2022-07-11T03:49:47;16.80;99.90
43043;DHT22;28667;50.758;6.096;2022-07-11T03:52:13;16.80;99.90
43043;DHT22;28667;50.758;6.096;2022-07-11T03:54:39;16.70;99.90
43043;DHT22;28667;50.758;6.096;2022-07-11T03:57:06;16.80;99.90
43043;DHT22;28667;50.758;6.096;2022-07-11T03:59:32;16.70;99.90
43043;DHT22;28667;50.758;6.096;2022-07-11T04:01:58;16.70;99.90
43043;DHT22;28667;50.758;6.096;2022-07-11T04:04:24;16.60;99.90
43043;DHT22;28667;50.758;6.096;2022-07-11T04:06:50;16.60;99.90
43043;DHT22;28667;50.758;6.096;2022-07-11T04:09:17;16.60;99.90
43043;DHT22;28667;50.758;6.096;2022-07-11T04:11:43;16.60;99.90
43043;DHT22;28667;50.758;6.096;2022-07-11T04:14:08;16.60;99.90
43043;DHT22;28667;50.758;6.096;2022-07-11T04:16:35;16.70;99.90
43043;DHT22;28667;50.758;6.096;2022-07-11T04:19:01;16.70;99.90
43043;DHT22;28667;50.758;6.096;2022-07-11T04:21:27;16.80;99.90
43043;DHT22;28667;50.758;6.096;2022-07-11T04:23:53;16.80;99.90
43043;DHT22;28667;50.758;6.096;2022-07-11T04:26:19;16.70;99.90
43043;DHT22;28667;50.758;6.096;2022-07-11T04:28:45;16.60;99.90
43043;DHT22;28667;50.758;6.096;2022-07-11T04:31:11;16.60;99.90
43043;DHT22;28667;50.758;6.096;2022-07-11T04:33:37;16.60;99.90
43043;DHT22;28667;50.758;6.096;2022-07-11T04:36:03;16.60;99.90
43043;DHT22;28667;50.758;6.096;2022-07-11T04:38:29;16.60;99.90
43043;DHT22;28667;50.758;6.096;2022-07-11T04:40:55;16.60;99.90
43043;DHT22;28667;50.758;6.096;2022-07-11T04:43:21;16.60;99.90
43043;DHT22;28667;50.758;6.096;2022-07-11T04:45:47;16.50;99.90
43043;DHT22;28667;50.758;6.096;2022-07-11T04:48:13;16.60;99.90
43043;DHT22;28667;50.758;6.096;2022-07-11T04:50:43;16.60;99.90
43043;DHT22;28667;50.758;6.096;2022-07-11T04:53:10;16.60;99.90
43043;DHT22;28667;50.758;6.096;2022-07-11T04:55:38;16.60;99.90
43043;DHT22;28667;50.758;6.096;2022-07-11T04:58:08;16.60;99.90
43043;DHT22;28667;50.758;6.096;2022-07-11T05:00:35;16.70;99.90
43043;DHT22;28667;50.758;6.096;2022-07-11T05:03:01;16.80;99.90
43043;DHT22;28667;50.758;6.096;2022-07-11T05:05:28;16.80;99.90
43043;DHT22;28667;50.758;6.096;2022-07-11T05:07:54;16.80;99.90
43043;DHT22;28667;50.758;6.096;2022-07-11T05:10:20;16.80;99.90
43043;DHT22;28667;50.758;6.096;2022-07-11T05:12:46;16.90;99.90
43043;DHT22;28667;50.758;6.096;2022-07-11T05:15:12;16.90;99.90
43043;DHT22;28667;50.758;6.096;2022-07-11T05:17:38;16.90;99.90
43043;DHT22;28667;50.758;6.096;2022-07-11T05:20:05;17.00;99.90
43043;DHT22;28667;50.758;6.096;2022-07-11T05:22:31;17.00;99.90
43043;DHT22;28667;50.758;6.096;2022-07-11T05:24:57;17.00;99.90
43043;DHT22;28667;50.758;6.096;2022-07-11T05:27:23;16.90;99.90
43043;DHT22;28667;50.758;6.096;2022-07-11T05:29:49;16.80;99.90
43043;DHT22;28667;50.758;6.096;2022-07-11T05:32:15;16.90;99.90
43043;DHT22;28667;50.758;6.096;2022-07-11T05:34:41;16.80;99.90
43043;DHT22;28667;50.758;6.096;2022-07-11T05:37:07;16.80;99.90
43043;DHT22;28667;50.758;6.096;2022-07-11T05:39:33;16.80;99.90
43043;DHT22;28667;50.758;6.096;2022-07-11T05:41:59;16.90;99.90
43043;DHT22;28667;50.758;6.096;2022-07-11T05:44:25;16.90;99.90
43043;DHT22;28667;50.758;6.096;2022-07-11T05:46:51;17.00;99.90
43043;DHT22;28667;50.758;6.096;2022-07-11T05:49:17;17.00;99.90
43043;DHT22;28667;50.758;6.096;2022-07-11T05:51:43;17.10;99.90
43043;DHT22;28667;50.758;6.096;2022-07-11T05:54:10;17.10;99.90
43043;DHT22;28667;50.758;6.096;2022-07-11T05:56:36;17.20;99.90
43043;DHT22;28667;50.758;6.096;2022-07-11T05:59:03;17.20;99.90
43043;DHT22;28667;50.758;6.096;2022-07-11T06:01:29;17.20;99.90
43043;DHT22;28667;50.758;6.096;2022-07-11T06:03:58;17.30;99.90
43043;DHT22;28667;50.758;6.096;2022-07-11T06:06:26;17.20;99.90
43043;DHT22;28667;50.758;6.096;2022-07-11T06:08:53;17.30;99.90
43043;DHT22;28667;50.758;6.096;2022-07-11T06:11:19;17.30;99.90
43043;DHT22;28667;50.758;6.096;2022-07-11T06:13:45;17.30;99.90
43043;DHT22;28667;50.758;6.096;2022-07-11T06:16:12;17.30;99.90
43043;DHT22;28667;50.758;6.096;2022-07-11T06:18:38;17.30;99.90
43043;DHT22;28667;50.758;6.096;2022-07-11T06:21:05;17.30;99.90
43043;DHT22;28667;50.758;6.096;2022-07-11T06:23:32;17.30;99.90
43043;DHT22;28667;50.758;6.096;2022-07-11T06:26:01;17.30;99.90
43043;DHT22;28667;50.758;6.096;2022-07-11T06:28:27;17.20;99.90
43043;DHT22;28667;50.758;6.096;2022-07-11T06:30:53;17.20;99.90
43043;DHT22;28667;50.758;6.096;2022-07-11T06:33:20;17.10;99.90
43043;DHT22;28667;50.758;6.096;2022-07-11T06:35:46;17.10;99.90
43043;DHT22;28667;50.758;6.096;2022-07-11T06:38:14;17.10;99.90
43043;DHT22;28667;50.758;6.096;2022-07-11T06:40:40;17.00;99.90
43043;DHT22;28667;50.758;6.096;2022-07-11T06:43:09;17.00;99.90
43043;DHT22;28667;50.758;6.096;2022-07-11T06:45:35;17.00;99.90
43043;DHT22;28667;50.758;6.096;2022-07-11T06:48:02;17.00;99.90
43043;DHT22;28667;50.758;6.096;2022-07-11T06:50:28;17.10;99.90
43043;DHT22;28667;50.758;6.096;2022-07-11T06:52:54;17.10;99.90
43043;DHT22;28667;50.758;6.096;2022-07-11T06:55:21;17.10;99.90
43043;DHT22;28667;50.758;6.096;2022-07-11T06:57:46;17.10;99.90
43043;DHT22;28667;50.758;6.096;2022-07-11T07:00:13;17.10;99.90
43043;DHT22;28667;50.758;6.096;2022-07-11T07:02:39;17.20;99.90
43043;DHT22;28667;50.758;6.096;2022-07-11T07:05:06;17.20;99.90
43043;DHT22;28667;50.758;6.096;2022-07-11T07:07:32;17.20;99.90
43043;DHT22;28667;50.758;6.096;2022-07-11T07:09:59;17.30;99.90
43043;DHT22;28667;50.758;6.096;2022-07-11T07:12:25;17.30;99.90
43043;DHT22;28667;50.758;6.096;2022-07-11T07:14:51;17.40;99.90
43043;DHT22;28667;50.758;6.096;2022-07-11T07:17:17;17.50;99.90
43043;DHT22;28667;50.758;6.096;2022-07-11T07:19:45;17.60;99.90
43043;DHT22;28667;50.758;6.096;2022-07-11T07:22:11;17.70;99.90
43043;DHT22;28667;50.758;6.096;2022-07-11T07:24:40;17.80;99.90
43043;DHT22;28667;50.758;6.096;2022-07-11T07:27:06;17.80;99.90
43043;DHT22;28667;50.758;6.096;2022-07-11T07:29:32;17.90;99.90
43043;DHT22;28667;50.758;6.096;2022-07-11T07:31:59;17.90;99.90
43043;DHT22;28667;50.758;6.096;2022-07-11T07:34:28;17.90;99.90
43043;DHT22;28667;50.758;6.096;2022-07-11T07:36:54;18.00;99.90
43043;DHT22;28667;50.758;6.096;2022-07-11T07:39:20;18.00;99.90
43043;DHT22;28667;50.758;6.096;2022-07-11T07:41:46;17.90;99.90
43043;DHT22;28667;50.758;6.096;2022-07-11T07:44:12;17.90;99.90
43043;DHT22;28667;50.758;6.096;2022-07-11T07:46:38;18.00;99.90
43043;DHT22;28667;50.758;6.096;2022-07-11T07:49:04;18.00;99.90
43043;DHT22;28667;50.758;6.096;2022-07-11T07:51:30;18.00;99.90
43043;DHT22;28667;50.758;6.096;2022-07-11T07:53:56;18.10;99.90
43043;DHT22;28667;50.758;6.096;2022-07-11T07:56:23;18.10;99.90
43043;DHT22;28667;50.758;6.096;2022-07-11T07:58:50;18.20;99.90
43043;DHT22;28667;50.758;6.096;2022-07-11T08:01:18;18.40;99.90
43043;DHT22;28667;50.758;6.096;2022-07-11T08:04:06;18.40;99.90
43043;DHT22;28667;50.758;6.096;2022-07-11T08:06:34;18.40;99.90
43043;DHT22;28667;50.758;6.096;2022-07-11T08:09:04;18.40;99.90
43043;DHT22;28667;50.758;6.096;2022-07-11T08:11:31;18.30;99.90
43043;DHT22;28667;50.758;6.096;2022-07-11T08:13:58;18.30;99.90
43043;DHT22;28667;50.758;6.096;2022-07-11T08:16:24;18.40;99.90
43043;DHT22;28667;50.758;6.096;2022-07-11T08:18:50;18.40;99.90
43043;DHT22;28667;50.758;6.096;2022-07-11T08:21:19;18.40;99.90
43043;DHT22;28667;50.758;6.096;2022-07-11T08:23:45;18.50;99.90
43043;DHT22;28667;50.758;6.096;2022-07-11T08:26:11;18.50;99.90
43043;DHT22;28667;50.758;6.096;2022-07-11T08:28:37;18.60;99.90
43043;DHT22;28667;50.758;6.096;2022-07-11T08:31:03;18.60;99.90
43043;DHT22;28667;50.758;6.096;2022-07-11T08:33:29;18.80;99.90
43043;DHT22;28667;50.758;6.096;2022-07-11T08:35:55;18.90;99.90
43043;DHT22;28667;50.758;6.096;2022-07-11T08:38:21;19.00;99.90
43043;DHT22;28667;50.758;6.096;2022-07-11T08:40:49;19.00;99.90
43043;DHT22;28667;50.758;6.096;2022-07-11T08:43:18;19.00;99.90
43043;DHT22;28667;50.758;6.096;2022-07-11T08:45:45;19.00;99.90
43043;DHT22;28667;50.758;6.096;2022-07-11T08:48:12;19.00;99.90
43043;DHT22;28667;50.758;6.096;2022-07-11T08:50:39;19.00;99.90
43043;DHT22;28667;50.758;6.096;2022-07-11T08:53:05;19.00;99.90
43043;DHT22;28667;50.758;6.096;2022-07-11T08:55:31;19.00;99.90
43043;DHT22;28667;50.758;6.096;2022-07-11T08:57:59;19.00;99.90
43043;DHT22;28667;50.758;6.096;2022-07-11T09:00:25;19.00;99.90
43043;DHT22;28667;50.758;6.096;2022-07-11T09:02:52;19.00;99.90
43043;DHT22;28667;50.758;6.096;2022-07-11T09:05:18;19.00;99.90
43043;DHT22;28667;50.758;6.096;2022-07-11T09:07:49;18.90;99.90
43043;DHT22;28667;50.758;6.096;2022-07-11T09:10:17;19.00;99.90
43043;DHT22;28667;50.758;6.096;2022-07-11T09:13:02;19.00;99.90
43043;DHT22;28667;50.758;6.096;2022-07-11T09:15:38;19.40;99.90
43043;DHT22;28667;50.758;6.096;2022-07-11T09:21:05;19.70;99.90
43043;DHT22;28667;50.758;6.096;2022-07-11T09:23:51;19.80;99.90
43043;DHT22;28667;50.758;6.096;2022-07-11T09:26:39;19.60;99.90
43043;DHT22;28667;50.758;6.096;2022-07-11T09:31:33;19.80;99.90
43043;DHT22;28667;50.758;6.096;2022-07-11T09:34:00;19.80;99.90
43043;DHT22;28667;50.758;6.096;2022-07-11T09:36:52;19.70;99.90
43043;DHT22;28667;50.758;6.096;2022-07-11T09:39:23;19.60;99.90
43043;DHT22;28667;50.758;6.096;2022-07-11T09:41:51;19.60;99.90
43043;DHT22;28667;50.758;6.096;2022-07-11T09:44:20;19.50;99.90
43043;DHT22;28667;50.758;6.096;2022-07-11T09:46:51;19.50;99.90
43043;DHT22;28667;50.758;6.096;2022-07-11T09:51:55;19.50;99.90
43043;DHT22;28667;50.758;6.096;2022-07-11T09:54:31;19.40;99.90
43043;DHT22;28667;50.758;6.096;2022-07-11T09:56:57;19.40;99.90
43043;DHT22;28667;50.758;6.096;2022-07-11T09:59:23;19.50;99.90
43043;DHT22;28667;50.758;6.096;2022-07-11T10:01:49;19.50;99.90
43043;DHT22;28667;50.758;6.096;2022-07-11T10:04:15;19.40;99.90
43043;DHT22;28667;50.758;6.096;2022-07-11T10:06:42;19.40;99.90
43043;DHT22;28667;50.758;6.096;2022-07-11T10:09:08;19.40;99.90
43043;DHT22;28667;50.758;6.096;2022-07-11T10:11:34;19.40;99.90
43043;DHT22;28667;50.758;6.096;2022-07-11T10:14:03;19.50;99.90
43043;DHT22;28667;50.758;6.096;2022-07-11T10:22:02;19.60;99.90
43043;DHT22;28667;50.758;6.096;2022-07-11T10:27:15;19.70;99.90
43043;DHT22;28667;50.758;6.096;2022-07-11T10:29:52;19.60;99.90
43043;DHT22;28667;50.758;6.096;2022-07-11T10:32:18;19.50;99.90
43043;DHT22;28667;50.758;6.096;2022-07-11T10:35:10;19.40;99.90
43043;DHT22;28667;50.758;6.096;2022-07-11T10:37:51;19.30;99.90
43043;DHT22;28667;50.758;6.096;2022-07-11T10:43:34;19.30;99.90
43043;DHT22;28667;50.758;6.096;2022-07-11T10:48:33;19.40;99.90
43043;DHT22;28667;50.758;6.096;2022-07-11T11:02:26;19.50;99.90
43043;DHT22;28667;50.758;6.096;2022-07-11T11:05:00;19.50;99.90
43043;DHT22;28667;50.758;6.096;2022-07-11T11:07:37;19.60;99.90
43043;DHT22;28667;50.758;6.096;2022-07-11T11:10:50;19.80;99.90
43043;DHT22;28667;50.758;6.096;2022-07-11T11:15:45;19.80;99.90
43043;DHT22;28667;50.758;6.096;2022-07-11T11:23:35;20.20;99.90
43043;DHT22;28667;50.758;6.096;2022-07-11T11:28:38;19.70;99.90
43043;DHT22;28667;50.758;6.096;2022-07-11T11:31:06;19.60;99.90
43043;DHT22;28667;50.758;6.096;2022-07-11T11:33:34;19.60;99.90
43043;DHT22;28667;50.758;6.096;2022-07-11T11:36:04;19.60;99.90
43043;DHT22;28667;50.758;6.096;2022-07-11T11:38:36;19.50;99.90
43043;DHT22;28667;50.758;6.096;2022-07-11T11:41:03;19.50;99.90
43043;DHT22;28667;50.758;6.096;2022-07-11T11:43:32;19.40;99.90
43043;DHT22;28667;50.758;6.096;2022-07-11T11:45:58;19.30;99.90
43043;DHT22;28667;50.758;6.096;2022-07-11T11:48:33;19.50;99.90
43043;DHT22;28667;50.758;6.096;2022-07-11T11:51:13;19.70;99.90
43043;DHT22;28667;50.758;6.096;2022-07-11T11:56:15;19.50;99.90
43043;DHT22;28667;50.758;6.096;2022-07-11T11:58:42;19.50;99.90
43043;DHT22;28667;50.758;6.096;2022-07-11T12:01:10;19.50;99.90
43043;DHT22;28667;50.758;6.096;2022-07-11T12:03:56;19.50;99.90
43043;DHT22;28667;50.758;6.096;2022-07-11T12:06:29;19.50;99.90
43043;DHT22;28667;50.758;6.096;2022-07-11T12:09:16;19.50;99.90
43043;DHT22;28667;50.758;6.096;2022-07-11T12:11:45;19.70;99.90
43043;DHT22;28667;50.758;6.096;2022-07-11T12:14:13;19.80;99.90
43043;DHT22;28667;50.758;6.096;2022-07-11T12:16:44;19.80;99.90
43043;DHT22;28667;50.758;6.096;2022-07-11T12:19:17;19.80;99.90
43043;DHT22;28667;50.758;6.096;2022-07-11T12:21:48;19.80;99.90
43043;DHT22;28667;50.758;6.096;2022-07-11T12:24:22;19.80;99.90
43043;DHT22;28667;50.758;6.096;2022-07-11T12:26:49;20.00;99.90
43043;DHT22;28667;50.758;6.096;2022-07-11T12:29:23;20.10;99.90
43043;DHT22;28667;50.758;6.096;2022-07-11T12:32:01;20.10;99.90
43043;DHT22;28667;50.758;6.096;2022-07-11T12:37:15;20.30;99.90
43043;DHT22;28667;50.758;6.096;2022-07-11T12:39:53;20.40;99.90
43043;DHT22;28667;50.758;6.096;2022-07-11T12:45:02;20.50;99.90
43043;DHT22;28667;50.758;6.096;2022-07-11T12:47:49;20.70;99.90
43043;DHT22;28667;50.758;6.096;2022-07-11T12:50:26;20.80;99.90
43043;DHT22;28667;50.758;6.096;2022-07-11T12:52:54;20.80;99.90
43043;DHT22;28667;50.758;6.096;2022-07-11T12:55:31;20.70;99.90
43043;DHT22;28667;50.758;6.096;2022-07-11T12:58:06;20.60;99.90
43043;DHT22;28667;50.758;6.096;2022-07-11T13:00:37;20.60;99.90
43043;DHT22;28667;50.758;6.096;2022-07-11T13:03:04;20.60;99.90
43043;DHT22;28667;50.758;6.096;2022-07-11T13:05:50;20.70;99.90
43043;DHT22;28667;50.758;6.096;2022-07-11T13:08:35;20.70;99.90
43043;DHT22;28667;50.758;6.096;2022-07-11T13:11:16;20.70;99.90
43043;DHT22;28667;50.758;6.096;2022-07-11T13:13:43;20.80;99.90
43043;DHT22;28667;50.758;6.096;2022-07-11T13:16:10;20.80;99.90
43043;DHT22;28667;50.758;6.096;2022-07-11T13:18:36;20.90;99.90
43043;DHT22;28667;50.758;6.096;2022-07-11T13:21:03;20.90;99.90
43043;DHT22;28667;50.758;6.096;2022-07-11T13:23:30;20.90;99.90
43043;DHT22;28667;50.758;6.096;2022-07-11T13:25:56;20.90;99.90
43043;DHT22;28667;50.758;6.096;2022-07-11T13:28:23;20.90;99.90
43043;DHT22;28667;50.758;6.096;2022-07-11T13:30:52;20.90;99.90
43043;DHT22;28667;50.758;6.096;2022-07-11T13:33:22;20.90;99.90
43043;DHT22;28667;50.758;6.096;2022-07-11T13:35:48;20.90;99.90
43043;DHT22;28667;50.758;6.096;2022-07-11T13:38:15;20.90;99.90
43043;DHT22;28667;50.758;6.096;2022-07-11T13:40:42;20.90;99.90
43043;DHT22;28667;50.758;6.096;2022-07-11T13:43:09;20.80;99.90
43043;DHT22;28667;50.758;6.096;2022-07-11T13:45:36;20.80;99.90
43043;DHT22;28667;50.758;6.096;2022-07-11T13:48:02;20.90;99.90
43043;DHT22;28667;50.758;6.096;2022-07-11T13:50:28;20.90;99.90
43043;DHT22;28667;50.758;6.096;2022-07-11T13:52:54;20.90;99.90
43043;DHT22;28667;50.758;6.096;2022-07-11T13:55:22;21.00;99.90
43043;DHT22;28667;50.758;6.096;2022-07-11T13:57:50;21.00;99.90
43043;DHT22;28667;50.758;6.096;2022-07-11T14:00:18;21.00;99.90
43043;DHT22;28667;50.758;6.096;2022-07-11T14:02:45;21.10;99.90
43043;DHT22;28667;50.758;6.096;2022-07-11T14:05:11;21.20;99.90
43043;DHT22;28667;50.758;6.096;2022-07-11T14:07:37;21.30;99.90
43043;DHT22;28667;50.758;6.096;2022-07-11T14:10:04;21.50;99.90
43043;DHT22;28667;50.758;6.096;2022-07-11T14:12:32;21.50;99.90
43043;DHT22;28667;50.758;6.096;2022-07-11T14:14:58;21.60;99.90
43043;DHT22;28667;50.758;6.096;2022-07-11T14:17:24;21.50;99.90
43043;DHT22;28667;50.758;6.096;2022-07-11T14:19:54;21.50;99.90
43043;DHT22;28667;50.758;6.096;2022-07-11T14:22:21;21.50;99.90
43043;DHT22;28667;50.758;6.096;2022-07-11T14:24:47;21.50;99.90
43043;DHT22;28667;50.758;6.096;2022-07-11T14:27:15;21.50;99.90
43043;DHT22;28667;50.758;6.096;2022-07-11T14:29:42;21.40;99.90
43043;DHT22;28667;50.758;6.096;2022-07-11T14:32:11;21.40;99.90
43043;DHT22;28667;50.758;6.096;2022-07-11T14:34:37;21.40;99.90
43043;DHT22;28667;50.758;6.096;2022-07-11T14:37:03;21.40;99.90
43043;DHT22;28667;50.758;6.096;2022-07-11T14:39:31;21.40;99.90
43043;DHT22;28667;50.758;6.096;2022-07-11T14:41:57;21.40;99.90
43043;DHT22;28667;50.758;6.096;2022-07-11T14:44:26;21.40;99.90
43043;DHT22;28667;50.758;6.096;2022-07-11T14:46:53;21.30;99.90
43043;DHT22;28667;50.758;6.096;2022-07-11T14:49:19;21.20;99.90
43043;DHT22;28667;50.758;6.096;2022-07-11T14:51:45;21.10;99.90
43043;DHT22;28667;50.758;6.096;2022-07-11T14:54:11;21.20;99.90
43043;DHT22;28667;50.758;6.096;2022-07-11T14:56:39;21.20;99.90
43043;DHT22;28667;50.758;6.096;2022-07-11T14:59:05;21.40;99.90
43043;DHT22;28667;50.758;6.096;2022-07-11T15:01:32;21.40;99.90
43043;DHT22;28667;50.758;6.096;2022-07-11T15:03:58;21.30;99.90
43043;DHT22;28667;50.758;6.096;2022-07-11T15:06:24;21.30;99.90
43043;DHT22;28667;50.758;6.096;2022-07-11T15:09:10;21.30;99.90
43043;DHT22;28667;50.758;6.096;2022-07-11T15:11:55;21.40;99.90
43043;DHT22;28667;50.758;6.096;2022-07-11T15:14:41;21.50;99.90
43043;DHT22;28667;50.758;6.096;2022-07-11T15:17:07;21.60;99.90
43043;DHT22;28667;50.758;6.096;2022-07-11T15:19:33;21.80;99.50
43043;DHT22;28667;50.758;6.096;2022-07-11T15:21:59;21.90;99.40
43043;DHT22;28667;50.758;6.096;2022-07-11T15:24:25;22.00;99.20
43043;DHT22;28667;50.758;6.096;2022-07-11T15:26:51;22.10;98.90
43043;DHT22;28667;50.758;6.096;2022-07-11T15:29:18;22.20;98.50
43043;DHT22;28667;50.758;6.096;2022-07-11T15:31:44;22.00;98.50
43043;DHT22;28667;50.758;6.096;2022-07-11T15:34:11;21.90;98.90
43043;DHT22;28667;50.758;6.096;2022-07-11T15:36:40;21.70;99.10
43043;DHT22;28667;50.758;6.096;2022-07-11T15:39:09;21.60;99.40
43043;DHT22;28667;50.758;6.096;2022-07-11T15:41:35;21.50;99.70
43043;DHT22;28667;50.758;6.096;2022-07-11T15:44:01;21.40;99.60
43043;DHT22;28667;50.758;6.096;2022-07-11T15:46:27;21.40;99.50
43043;DHT22;28667;50.758;6.096;2022-07-11T15:48:53;21.40;99.40
43043;DHT22;28667;50.758;6.096;2022-07-11T15:51:19;21.40;99.50
43043;DHT22;28667;50.758;6.096;2022-07-11T15:53:45;21.40;99.50
43043;DHT22;28667;50.758;6.096;2022-07-11T15:56:12;21.30;99.70
43043;DHT22;28667;50.758;6.096;2022-07-11T15:58:38;21.40;99.40
43043;DHT22;28667;50.758;6.096;2022-07-11T16:01:04;21.50;99.20
43043;DHT22;28667;50.758;6.096;2022-07-11T16:03:30;21.50;98.90
43043;DHT22;28667;50.758;6.096;2022-07-11T16:05:57;21.50;99.00
43043;DHT22;28667;50.758;6.096;2022-07-11T16:08:23;21.60;98.80
43043;DHT22;28667;50.758;6.096;2022-07-11T16:10:50;21.60;98.90
43043;DHT22;28667;50.758;6.096;2022-07-11T16:13:17;21.50;99.10
43043;DHT22;28667;50.758;6.096;2022-07-11T16:15:44;21.40;99.40
43043;DHT22;28667;50.758;6.096;2022-07-11T16:18:13;21.40;99.60
43043;DHT22;28667;50.758;6.096;2022-07-11T16:20:41;21.40;99.40
43043;DHT22;28667;50.758;6.096;2022-07-11T16:23:07;21.40;99.30
43043;DHT22;28667;50.758;6.096;2022-07-11T16:25:33;21.50;99.40
43043;DHT22;28667;50.758;6.096;2022-07-11T16:28:01;21.60;99.10